Gunnar Thorson — OUDU — position and weather

sailwx.info

Track history (hours):
 
Tides and Currents Weather Stations Pressure Air Temp Water Temp Dewpoint Dewpoint Depression Visibility Wind Speed Wind Dir Waves Ship Positions

Oceanographic research ship Gunnar Thorson (Denmark)

Detailed information on ship capabilities available from University of Delaware's Ocean Information Center.

Last reported at 2020-Jul-12 22:29 UTC. Time now 2020-Jul-13 02:03 UTC.
Position N 57°26' E 010°32'.

Length 48 m; draft 4.2 m.

Type: Military. MMSI: 219263000.

Date/timePositionNaut miles runAvg speedWind from/ knotsBaromVisibWave heightAir tempDewpointWater temp
2020-Jul-12 22:29N 57°26' E 010°32'0 0.0
2020-Jul-12 21:59N 57°26' E 010°32'0 0.0
2020-Jul-12 18:44N 57°26' E 010°32'0 0.0
2020-Jul-12 18:26N 57°26' E 010°32'0 0.0
2020-Jul-12 14:23N 57°26' E 010°32'0 0.0
2020-Jul-12 13:23N 57°26' E 010°32'0 0.0
2020-Jul-12 12:29N 57°26' E 010°32'0 0.0
2020-Jul-12 10:59N 57°26' E 010°32'0 0.0
2020-Jul-12 07:29N 57°26' E 010°32'0 0.0
2020-Jul-12 04:59N 57°26' E 010°32'0 0.0
2020-Jul-12 01:20N 57°26' E 010°32'0 0.0
2020-Jul-11 23:59N 57°26' E 010°32'0 0.0
2020-Jul-11 22:29N 57°26' E 010°32'0 0.0
2020-Jul-11 20:59N 57°26' E 010°32'0 0.0
2020-Jul-11 18:53N 57°26' E 010°32'0 0.0
2020-Jul-11 15:28N 57°26' E 010°32'0 0.0
2020-Jul-11 13:28N 57°26' E 010°32'0 0.0
2020-Jul-11 10:58N 57°26' E 010°32'0 0.0
2020-Jul-11 08:58N 57°26' E 010°32'0 0.0
2020-Jul-11 07:55N 57°26' E 010°32'0 0.0
2020-Jul-11 03:22N 57°26' E 010°32'0 0.0
2020-Jul-11 02:55N 57°26' E 010°32'0 0.0
2020-Jul-11 02:28N 57°26' E 010°32'0 0.0
2020-Jul-11 01:58N 57°26' E 010°32'0 0.0
2020-Jul-11 00:55N 57°26' E 010°32'0 0.0
2020-Jul-10 22:25N 57°26' E 010°32'0 0.0
2020-Jul-10 19:28N 57°26' E 010°32'0 0.0
2020-Jul-10 18:58N 57°26' E 010°32'0 0.0
2020-Jul-10 15:58N 57°26' E 010°32'0 0.0
2020-Jul-10 14:55N 57°26' E 010°32'0 0.0
2020-Jul-10 13:25N 57°26' E 010°32'0 0.0
2020-Jul-10 11:55N 57°26' E 010°32'0 0.0
2020-Jul-10 10:58N 57°26' E 010°32'0 0.0
2020-Jul-10 08:28N 57°26' E 010°32'12 6.0
2020-Jul-10 06:30N 57°37' E 010°42'611.1
2020-Jul-10 06:00N 57°42' E 010°39'2 4.3
2020-Jul-10 05:28N 57°43' E 010°36'0 0.0
2020-Jul-10 02:25N 57°43' E 010°36'0 0.0
2020-Jul-10 01:58N 57°43' E 010°36'0 0.0
2020-Jul-10 01:28N 57°43' E 010°36'0 0.0
2020-Jul-10 00:58N 57°43' E 010°36'0 0.0
2020-Jul-10 00:28N 57°43' E 010°36'0 0.0
2020-Jul-09 21:58N 57°43' E 010°36'0 0.0
2020-Jul-09 19:58N 57°43' E 010°36'0 0.0
2020-Jul-09 15:58N 57°43' E 010°36'0 0.0
2020-Jul-09 14:55N 57°43' E 010°36'3 3.4
2020-Jul-09 13:59N 57°42' E 010°41'14 9.6
2020-Jul-09 12:30N 57°28' E 010°46'2 3.7
2020-Jul-09 12:00N 57°26' E 010°46'0 0.3
2020-Jul-09 11:30N 57°26' E 010°46'75 3.7
2020-Jul-08 15:30N 56°11' E 010°36'8 4.1
2020-Jul-08 13:27N 56°04' E 010°28'510.3
2020-Jul-08 12:58N 56°08' E 010°21'2 4.1
2020-Jul-08 12:30N 56°08' E 010°18'3 1.9
2020-Jul-08 11:00N 56°06' E 010°20'38 2.3
2020-Jul-07 18:26N 55°33' E 009°45'5 1.3
2020-Jul-07 14:48N 55°30' E 009°39'5 6.0
2020-Jul-07 13:56N 55°34' E 009°45'0 0.0
2020-Jul-07 12:56N 55°34' E 009°45'0 0.0
2020-Jul-07 11:30N 55°34' E 009°45'36 9.0
2020-Jul-07 07:30N 55°59' E 010°30'13 6.5
2020-Jul-07 05:27N 56°12' E 010°35'0 0.0
2020-Jul-07 04:48N 56°12' E 010°35'0 0.0
2020-Jul-07 03:30N 56°12' E 010°35'0 0.0
2020-Jul-07 03:00N 56°12' E 010°35'0 0.0
2020-Jul-06 23:57N 56°12' E 010°35'0 0.0
2020-Jul-06 22:29N 56°12' E 010°35'12 3.4
2020-Jul-06 19:00N 56°17' E 010°55'  
Track history (hours):
 
Tides and Currents Weather Stations Pressure Air Temp Water Temp Dewpoint Dewpoint Depression Visibility Wind Speed Wind Dir Waves Ship Positions

Oceanographic research ship Gunnar Thorson (Denmark)

Detailed information on ship capabilities available from University of Delaware's Ocean Information Center.

Last reported at 2020-Jul-12 22:29 UTC. Time now 2020-Jul-13 02:03 UTC.
Position N 57°26' E 010°32'.

Length 48 m; draft 4.2 m.

Type: Military. MMSI: 219263000.

Date/timePositionNaut miles runAvg speedWind from/ knotsBaromVisibWave heightAir tempDewpointWater temp
2020-Jul-12 22:29N 57°26' E 010°32'0 0.0
2020-Jul-12 21:59N 57°26' E 010°32'0 0.0
2020-Jul-12 18:44N 57°26' E 010°32'0 0.0
2020-Jul-12 18:26N 57°26' E 010°32'0 0.0
2020-Jul-12 14:23N 57°26' E 010°32'0 0.0
2020-Jul-12 13:23N 57°26' E 010°32'0 0.0
2020-Jul-12 12:29N 57°26' E 010°32'0 0.0
2020-Jul-12 10:59N 57°26' E 010°32'0 0.0
2020-Jul-12 07:29N 57°26' E 010°32'0 0.0
2020-Jul-12 04:59N 57°26' E 010°32'0 0.0
2020-Jul-12 01:20N 57°26' E 010°32'0 0.0
2020-Jul-11 23:59N 57°26' E 010°32'0 0.0
2020-Jul-11 22:29N 57°26' E 010°32'0 0.0
2020-Jul-11 20:59N 57°26' E 010°32'0 0.0
2020-Jul-11 18:53N 57°26' E 010°32'0 0.0
2020-Jul-11 15:28N 57°26' E 010°32'0 0.0
2020-Jul-11 13:28N 57°26' E 010°32'0 0.0
2020-Jul-11 10:58N 57°26' E 010°32'0 0.0
2020-Jul-11 08:58N 57°26' E 010°32'0 0.0
2020-Jul-11 07:55N 57°26' E 010°32'0 0.0
2020-Jul-11 03:22N 57°26' E 010°32'0 0.0
2020-Jul-11 02:55N 57°26' E 010°32'0 0.0
2020-Jul-11 02:28N 57°26' E 010°32'0 0.0
2020-Jul-11 01:58N 57°26' E 010°32'0 0.0
2020-Jul-11 00:55N 57°26' E 010°32'0 0.0
2020-Jul-10 22:25N 57°26' E 010°32'0 0.0
2020-Jul-10 19:28N 57°26' E 010°32'0 0.0
2020-Jul-10 18:58N 57°26' E 010°32'0 0.0
2020-Jul-10 15:58N 57°26' E 010°32'0 0.0
2020-Jul-10 14:55N 57°26' E 010°32'0 0.0
2020-Jul-10 13:25N 57°26' E 010°32'0 0.0
2020-Jul-10 11:55N 57°26' E 010°32'0 0.0
2020-Jul-10 10:58N 57°26' E 010°32'0 0.0
2020-Jul-10 08:28N 57°26' E 010°32'12 6.0
2020-Jul-10 06:30N 57°37' E 010°42'611.1
2020-Jul-10 06:00N 57°42' E 010°39'2 4.3
2020-Jul-10 05:28N 57°43' E 010°36'0 0.0
2020-Jul-10 02:25N 57°43' E 010°36'0 0.0
2020-Jul-10 01:58N 57°43' E 010°36'0 0.0
2020-Jul-10 01:28N 57°43' E 010°36'0 0.0
2020-Jul-10 00:58N 57°43' E 010°36'0 0.0
2020-Jul-10 00:28N 57°43' E 010°36'0 0.0
2020-Jul-09 21:58N 57°43' E 010°36'0 0.0
2020-Jul-09 19:58N 57°43' E 010°36'0 0.0
2020-Jul-09 15:58N 57°43' E 010°36'0 0.0
2020-Jul-09 14:55N 57°43' E 010°36'3 3.4
2020-Jul-09 13:59N 57°42' E 010°41'14 9.6
2020-Jul-09 12:30N 57°28' E 010°46'2 3.7
2020-Jul-09 12:00N 57°26' E 010°46'0 0.3
2020-Jul-09 11:30N 57°26' E 010°46'75 3.7
2020-Jul-08 15:30N 56°11' E 010°36'8 4.1
2020-Jul-08 13:27N 56°04' E 010°28'510.3
2020-Jul-08 12:58N 56°08' E 010°21'2 4.1
2020-Jul-08 12:30N 56°08' E 010°18'3 1.9
2020-Jul-08 11:00N 56°06' E 010°20'38 2.3
2020-Jul-07 18:26N 55°33' E 009°45'5 1.3
2020-Jul-07 14:48N 55°30' E 009°39'5 6.0
2020-Jul-07 13:56N 55°34' E 009°45'0 0.0
2020-Jul-07 12:56N 55°34' E 009°45'0 0.0
2020-Jul-07 11:30N 55°34' E 009°45'36 9.0
2020-Jul-07 07:30N 55°59' E 010°30'13 6.5
2020-Jul-07 05:27N 56°12' E 010°35'0 0.0
2020-Jul-07 04:48N 56°12' E 010°35'0 0.0
2020-Jul-07 03:30N 56°12' E 010°35'0 0.0
2020-Jul-07 03:00N 56°12' E 010°35'0 0.0
2020-Jul-06 23:57N 56°12' E 010°35'0 0.0
2020-Jul-06 22:29N 56°12' E 010°35'12 3.4
2020-Jul-06 19:00N 56°17' E 010°55'  

Dump ship's entire track history